Aviation Digital Data Service (ADDS)

Output produced by METARs form (1301 UTC 30 July 2016)
found at http://www.aviationweather.gov/adds/metars/
 
KSPI 301243Z 3013/3112 VRB03KT 4SM BR BKN004 
     TEMPO 3013/3014 2SM BR 
     FM301400 30005KT P6SM BKN040 
     FM310900 VRB03KT 3SM BR SCT008